createdAt,value
2019-03-06T00:00:13.316Z,41.69
2019-03-06T00:01:13.305Z,41.30
2019-03-06T00:02:13.295Z,41.49
2019-03-06T00:03:13.283Z,41.80
2019-03-06T00:04:13.292Z,41.82
2019-03-06T00:05:13.651Z,41.39
2019-03-06T00:06:16.617Z,41.30
2019-03-06T00:07:13.235Z,41.30
2019-03-06T00:08:13.237Z,41.49
2019-03-06T00:09:13.641Z,41.09
2019-03-06T00:10:13.214Z,41.60
2019-03-06T00:11:13.195Z,41.60
2019-03-06T00:12:13.182Z,41.39
2019-03-06T00:13:13.172Z,41.39
2019-03-06T00:14:13.169Z,41.30
2019-03-06T00:15:13.151Z,41.39
2019-03-06T00:16:13.664Z,41.39
2019-03-06T00:17:13.137Z,41.39
2019-03-06T00:18:13.117Z,41.41
2019-03-06T00:19:13.106Z,41.30
2019-03-06T00:20:13.149Z,41.30
2019-03-06T00:21:13.082Z,41.30
2019-03-06T00:22:13.080Z,41.09
2019-03-06T00:23:13.081Z,40.99
2019-03-06T00:24:13.074Z,41.60
2019-03-06T00:25:13.155Z,41.69
2019-03-06T00:26:13.040Z,41.19
2019-03-06T00:27:13.015Z,40.99
2019-03-06T00:28:13.010Z,40.99
2019-03-06T00:29:13.013Z,41.39
2019-03-06T00:30:13.151Z,40.99
2019-03-06T00:31:12.977Z,41.49
2019-03-06T00:32:12.962Z,41.49
2019-03-06T00:33:12.990Z,41.49
2019-03-06T00:34:12.957Z,41.30
2019-03-06T00:35:13.153Z,41.08
2019-03-06T00:36:13.159Z,41.30
2019-03-06T00:37:12.920Z,41.69
2019-03-06T00:38:12.929Z,41.49
2019-03-06T00:39:12.901Z,41.09
2019-03-06T00:40:12.903Z,40.99
2019-03-06T00:41:12.894Z,40.97
2019-03-06T00:42:12.866Z,41.39
2019-03-06T00:43:12.858Z,41.30
2019-03-06T00:44:12.849Z,40.97
2019-03-06T00:45:12.832Z,40.97
2019-03-06T00:46:13.161Z,40.97
2019-03-06T00:47:12.799Z,40.88
2019-03-06T00:48:13.173Z,40.89
2019-03-06T00:49:12.795Z,40.78
2019-03-06T00:50:12.789Z,41.19
2019-03-06T00:51:13.169Z,40.97
2019-03-06T00:52:12.748Z,40.67
2019-03-06T00:53:12.743Z,40.67
2019-03-06T00:54:12.727Z,40.88
2019-03-06T00:55:12.711Z,40.80
2019-03-06T00:56:13.152Z,40.67
2019-03-06T00:57:12.696Z,40.78
2019-03-06T00:58:12.678Z,40.58
2019-03-06T00:59:12.671Z,41.17
2019-03-06T01:00:12.657Z,40.67
2019-03-06T01:01:12.649Z,40.88
2019-03-06T01:02:13.143Z,40.89
2019-03-06T01:03:12.634Z,41.25
2019-03-06T01:04:12.615Z,40.88
2019-03-06T01:05:12.606Z,40.67
2019-03-06T01:06:12.594Z,40.67
2019-03-06T01:07:12.641Z,40.97
2019-03-06T01:08:12.575Z,40.89
2019-03-06T01:09:12.574Z,41.17
2019-03-06T01:10:12.664Z,40.78
2019-03-06T01:11:12.550Z,40.67
2019-03-06T01:12:12.541Z,40.89
2019-03-06T01:13:12.542Z,40.88
2019-03-06T01:14:12.509Z,41.17
2019-03-06T01:15:12.510Z,41.39
2019-03-06T01:16:12.495Z,41.39
2019-03-06T01:17:12.471Z,41.30
2019-03-06T01:18:12.465Z,41.09
2019-03-06T01:19:12.469Z,41.30
2019-03-06T01:20:12.442Z,41.30
2019-03-06T01:21:12.445Z,41.19
2019-03-06T01:22:12.423Z,41.09
2019-03-06T01:23:12.413Z,41.19
2019-03-06T01:24:12.412Z,41.47
2019-03-06T01:25:12.387Z,40.99
2019-03-06T01:26:12.372Z,41.30
2019-03-06T01:27:12.376Z,41.09
2019-03-06T01:28:12.360Z,41.49
2019-03-06T01:29:12.370Z,41.09
2019-03-06T01:30:12.330Z,41.30
2019-03-06T01:31:12.322Z,41.19
2019-03-06T01:32:12.311Z,40.99
2019-03-06T01:33:12.664Z,41.09
2019-03-06T01:34:12.320Z,41.80
2019-03-06T01:35:12.275Z,41.39
2019-03-06T01:36:12.272Z,41.19
2019-03-06T01:37:12.661Z,41.09
2019-03-06T01:38:12.253Z,41.69
2019-03-06T01:39:12.233Z,41.30
2019-03-06T01:40:12.237Z,41.69
2019-03-06T01:41:12.215Z,41.60
2019-03-06T01:42:12.663Z,41.49
2019-03-06T01:43:12.194Z,41.60
2019-03-06T01:44:12.175Z,41.19
2019-03-06T01:45:12.187Z,41.19
2019-03-06T01:46:12.173Z,40.99
2019-03-06T01:47:12.146Z,41.69
2019-03-06T01:48:12.169Z,41.19
2019-03-06T01:49:12.133Z,41.09
2019-03-06T01:50:12.126Z,40.99
2019-03-06T01:51:12.120Z,41.30
2019-03-06T01:52:12.096Z,41.30
2019-03-06T01:53:12.163Z,41.39
2019-03-06T01:54:12.070Z,40.99
2019-03-06T01:55:12.063Z,41.60
2019-03-06T01:56:12.051Z,41.09
2019-03-06T01:57:12.045Z,40.78
2019-03-06T01:58:12.046Z,41.19
2019-03-06T01:59:12.016Z,41.08
2019-03-06T02:00:12.003Z,40.67
2019-03-06T02:01:12.171Z,41.16
2019-03-06T02:02:11.986Z,41.08
2019-03-06T02:03:11.986Z,40.88
2019-03-06T02:04:11.967Z,40.88
2019-03-06T02:05:11.946Z,40.67
2019-03-06T02:06:11.936Z,40.58
2019-03-06T02:07:11.940Z,41.38
2019-03-06T02:08:11.956Z,40.97
2019-03-06T02:09:11.910Z,40.88
2019-03-06T02:10:11.895Z,40.78
2019-03-06T02:11:11.882Z,40.47
2019-03-06T02:12:11.882Z,40.78
2019-03-06T02:13:11.877Z,41.08
2019-03-06T02:14:11.861Z,40.78
2019-03-06T02:15:11.846Z,41.17
2019-03-06T02:16:11.836Z,40.78
2019-03-06T02:17:11.819Z,41.27
2019-03-06T02:18:11.806Z,41.27
2019-03-06T02:19:11.829Z,40.58
2019-03-06T02:20:11.827Z,40.58
2019-03-06T02:21:11.789Z,40.56
2019-03-06T02:22:12.187Z,40.97
2019-03-06T02:23:12.219Z,40.58
2019-03-06T02:24:11.743Z,41.38
2019-03-06T02:25:11.730Z,40.78
2019-03-06T02:26:11.725Z,40.67
2019-03-06T02:27:11.709Z,40.47
2019-03-06T02:28:12.176Z,40.45
2019-03-06T02:29:11.700Z,41.27
2019-03-06T02:30:11.682Z,40.67
2019-03-06T02:31:11.665Z,41.08
2019-03-06T02:32:11.683Z,40.78
2019-03-06T02:33:11.659Z,40.88
2019-03-06T02:34:11.676Z,41.17
2019-03-06T02:35:11.624Z,40.59
2019-03-06T02:36:12.244Z,41.09
2019-03-06T02:37:11.699Z,41.30
2019-03-06T02:38:11.594Z,41.49
2019-03-06T02:39:11.699Z,41.30
2019-03-06T02:40:11.567Z,41.30
2019-03-06T02:41:11.555Z,41.39
2019-03-06T02:42:11.550Z,41.19
2019-03-06T02:43:11.548Z,41.69
2019-03-06T02:44:11.556Z,41.39
2019-03-06T02:45:11.515Z,41.39
2019-03-06T02:46:11.503Z,41.39
2019-03-06T02:47:11.489Z,41.30
2019-03-06T02:48:11.482Z,41.02
2019-03-06T02:49:11.514Z,41.60
2019-03-06T02:50:11.457Z,41.09
2019-03-06T02:51:11.460Z,41.19
2019-03-06T02:52:11.439Z,41.39
2019-03-06T02:53:11.440Z,40.99
2019-03-06T02:54:11.705Z,41.09
2019-03-06T02:55:11.417Z,41.30
2019-03-06T02:56:11.395Z,40.99
2019-03-06T02:57:11.383Z,40.99
2019-03-06T02:58:11.382Z,41.09
2019-03-06T02:59:11.670Z,41.21
2019-03-06T03:00:11.359Z,41.09
2019-03-06T03:01:11.342Z,41.09
2019-03-06T03:02:11.331Z,41.09
2019-03-06T03:03:11.680Z,40.99
2019-03-06T03:04:11.318Z,41.30
2019-03-06T03:05:11.304Z,41.09
2019-03-06T03:06:11.684Z,41.09
2019-03-06T03:07:11.311Z,41.60
2019-03-06T03:08:11.268Z,41.30
2019-03-06T03:09:11.261Z,41.60
2019-03-06T03:10:11.245Z,41.19
2019-03-06T03:11:11.685Z,41.30
2019-03-06T03:12:11.241Z,41.09
2019-03-06T03:13:11.207Z,41.60
2019-03-06T03:14:11.696Z,41.60
2019-03-06T03:15:11.191Z,41.30
2019-03-06T03:16:11.173Z,41.08
2019-03-06T03:17:11.170Z,40.89
2019-03-06T03:18:11.158Z,40.99
2019-03-06T03:19:11.185Z,40.80
2019-03-06T03:20:11.159Z,41.17
2019-03-06T03:21:11.129Z,40.88
2019-03-06T03:22:11.166Z,40.89
2019-03-06T03:23:11.118Z,40.99
2019-03-06T03:24:11.117Z,40.89
2019-03-06T03:25:11.086Z,40.80
2019-03-06T03:26:11.079Z,40.89
2019-03-06T03:27:11.067Z,40.88
2019-03-06T03:28:11.055Z,40.99
2019-03-06T03:29:11.209Z,40.69
2019-03-06T03:30:11.025Z,40.97
2019-03-06T03:31:11.035Z,41.38
2019-03-06T03:32:11.007Z,41.08
2019-03-06T03:33:10.990Z,40.78
2019-03-06T03:34:11.195Z,41.27
2019-03-06T03:35:10.975Z,40.97
2019-03-06T03:36:10.964Z,41.08
2019-03-06T03:37:10.950Z,40.78
2019-03-06T03:38:10.936Z,40.88
2019-03-06T03:39:10.926Z,40.58
2019-03-06T03:40:11.205Z,40.67
2019-03-06T03:41:10.913Z,41.08
2019-03-06T03:42:10.902Z,40.78
2019-03-06T03:43:10.879Z,40.88
2019-03-06T03:44:10.866Z,41.08
2019-03-06T03:45:10.870Z,40.88
2019-03-06T03:46:10.875Z,41.08
2019-03-06T03:47:10.845Z,40.58
2019-03-06T03:48:10.829Z,41.17
2019-03-06T03:49:10.825Z,40.99
2019-03-06T03:50:10.801Z,40.89
2019-03-06T03:51:10.813Z,41.09
2019-03-06T03:52:10.791Z,40.99
2019-03-06T03:53:10.771Z,40.89
2019-03-06T03:54:10.758Z,41.19
2019-03-06T03:55:10.751Z,41.49
2019-03-06T03:56:10.752Z,41.09
2019-03-06T03:57:10.744Z,41.49
2019-03-06T03:58:10.725Z,41.09
2019-03-06T03:59:10.734Z,41.49
2019-03-06T04:00:10.699Z,41.30
2019-03-06T04:01:10.706Z,41.39
2019-03-06T04:02:10.674Z,40.99
2019-03-06T04:03:10.662Z,41.19
2019-03-06T04:04:10.665Z,41.19
2019-03-06T04:05:10.643Z,41.09
2019-03-06T04:06:10.641Z,41.19
2019-03-06T04:07:10.698Z,41.60
2019-03-06T04:08:10.711Z,41.60
2019-03-06T04:09:10.644Z,41.30
2019-03-06T04:10:10.613Z,41.09
2019-03-06T04:11:10.725Z,41.11
2019-03-06T04:12:10.567Z,41.30
2019-03-06T04:13:10.555Z,40.67
2019-03-06T04:14:10.557Z,40.56
2019-03-06T04:15:10.541Z,39.82
2019-03-06T04:16:10.562Z,38.80
2019-03-06T04:17:10.509Z,38.18
2019-03-06T04:18:10.499Z,37.95
2019-03-06T04:19:10.492Z,37.73
2019-03-06T04:20:10.485Z,36.50
2019-03-06T04:21:10.485Z,36.78
2019-03-06T04:22:10.475Z,35.97
2019-03-06T04:23:10.477Z,35.75
2019-03-06T04:24:10.440Z,35.44
2019-03-06T04:25:10.432Z,34.52
2019-03-06T04:26:10.418Z,34.10
2019-03-06T04:27:10.419Z,34.18
2019-03-06T04:28:10.705Z,33.67
2019-03-06T04:29:10.381Z,32.78
2019-03-06T04:30:10.371Z,32.67
2019-03-06T04:31:10.356Z,32.65
2019-03-06T04:32:10.359Z,32.45
2019-03-06T04:33:10.706Z,32.04
2019-03-06T04:34:10.352Z,31.93
2019-03-06T04:35:10.328Z,32.03
2019-03-06T04:36:10.316Z,31.12
2019-03-06T04:37:10.306Z,30.71
2019-03-06T04:38:10.754Z,31.90
2019-03-06T04:39:10.281Z,30.50
2019-03-06T04:40:10.260Z,30.99
2019-03-06T04:41:10.252Z,30.68
2019-03-06T04:42:10.730Z,30.58
2019-03-06T04:43:10.235Z,29.78
2019-03-06T04:44:10.239Z,29.97
2019-03-06T04:45:10.218Z,30.26
2019-03-06T04:46:10.204Z,30.45
2019-03-06T04:47:10.201Z,30.04
2019-03-06T04:48:10.172Z,29.76
2019-03-06T04:49:10.161Z,29.76
2019-03-06T04:50:10.226Z,30.44
2019-03-06T04:51:10.139Z,30.44
2019-03-06T04:52:10.130Z,30.04
2019-03-06T04:53:10.123Z,29.55
2019-03-06T04:54:10.230Z,30.04
2019-03-06T04:55:10.124Z,30.24
2019-03-06T04:56:10.099Z,30.24
2019-03-06T04:57:10.089Z,29.74
2019-03-06T04:58:10.085Z,30.04
2019-03-06T04:59:10.214Z,29.85
2019-03-06T05:00:10.049Z,29.65
2019-03-06T05:01:10.051Z,29.85
2019-03-06T05:02:10.026Z,30.34
2019-03-06T05:03:10.037Z,30.04
2019-03-06T05:04:10.007Z,29.86
2019-03-06T05:05:09.990Z,30.15
2019-03-06T05:06:09.998Z,30.15
2019-03-06T05:07:10.004Z,29.86
2019-03-06T05:08:09.962Z,30.45
2019-03-06T05:09:09.955Z,30.45
2019-03-06T05:10:09.943Z,30.16
2019-03-06T05:11:09.925Z,30.37
2019-03-06T05:12:09.940Z,30.65
2019-03-06T05:13:09.941Z,30.26
2019-03-06T05:14:09.928Z,30.26
2019-03-06T05:15:09.896Z,29.97
2019-03-06T05:16:10.699Z,29.78
2019-03-06T05:17:09.883Z,29.78
2019-03-06T05:18:09.874Z,30.17
2019-03-06T05:19:09.866Z,30.07
2019-03-06T05:20:09.841Z,30.07
2019-03-06T05:21:09.826Z,30.86
2019-03-06T05:22:09.821Z,30.58
2019-03-06T05:23:10.222Z,30.68
2019-03-06T05:24:09.791Z,30.58
2019-03-06T05:25:09.787Z,30.38
2019-03-06T05:26:09.780Z,30.99
2019-03-06T05:27:09.764Z,30.38
2019-03-06T05:28:09.764Z,30.30
2019-03-06T05:29:09.754Z,30.60
2019-03-06T05:30:09.731Z,31.38
2019-03-06T05:31:09.718Z,31.19
2019-03-06T05:32:10.224Z,31.59
2019-03-06T05:33:09.696Z,31.30
2019-03-06T05:34:09.705Z,31.68
2019-03-06T05:35:09.695Z,30.81
2019-03-06T05:36:09.670Z,30.91
2019-03-06T05:37:09.661Z,32.29
2019-03-06T05:38:09.674Z,31.40
2019-03-06T05:39:09.633Z,31.51
2019-03-06T05:40:09.621Z,31.51
2019-03-06T05:41:09.628Z,30.92
2019-03-06T05:42:10.206Z,30.82
2019-03-06T05:43:09.613Z,31.02
2019-03-06T05:44:09.578Z,31.51
2019-03-06T05:45:09.875Z,31.12
2019-03-06T05:46:10.007Z,31.51
2019-03-06T05:47:09.561Z,32.01
2019-03-06T05:48:09.732Z,31.63
2019-03-06T05:49:09.738Z,31.63
2019-03-06T05:50:09.728Z,32.12
2019-03-06T05:51:09.501Z,32.03
2019-03-06T05:52:09.718Z,32.14
2019-03-06T05:53:10.479Z,32.53
2019-03-06T05:54:12.898Z,32.34
2019-03-06T05:55:09.462Z,32.43
2019-03-06T05:56:09.450Z,32.93
2019-03-06T05:57:09.450Z,32.95
2019-03-06T05:58:09.439Z,32.75
2019-03-06T05:59:09.422Z,32.85
2019-03-06T06:00:09.743Z,33.34
2019-03-06T06:01:09.462Z,32.55
2019-03-06T06:02:09.696Z,32.76
2019-03-06T06:03:10.389Z,32.76
2019-03-06T06:04:09.377Z,33.56
2019-03-06T06:05:09.724Z,33.17
2019-03-06T06:06:09.372Z,32.78
2019-03-06T06:07:09.341Z,32.78
2019-03-06T06:08:09.321Z,32.68
2019-03-06T06:09:09.309Z,33.57
2019-03-06T06:10:09.303Z,34.17
2019-03-06T06:11:09.299Z,33.77
2019-03-06T06:12:10.236Z,34.27
2019-03-06T06:13:09.289Z,33.78
2019-03-06T06:14:09.272Z,33.89
2019-03-06T06:15:10.217Z,33.00
2019-03-06T06:16:10.618Z,33.17
2019-03-06T06:17:09.758Z,31.90
2019-03-06T06:18:09.216Z,32.20
2019-03-06T06:19:09.725Z,31.31
2019-03-06T06:20:09.194Z,31.60
2019-03-06T06:21:09.182Z,32.00
2019-03-06T06:22:09.245Z,30.81
2019-03-06T06:23:09.743Z,32.20
2019-03-06T06:24:09.148Z,31.72
2019-03-06T06:25:09.137Z,32.31
2019-03-06T06:26:09.131Z,32.02
2019-03-06T06:27:09.735Z,32.03
2019-03-06T06:28:09.727Z,32.81
2019-03-06T06:29:09.741Z,32.14
2019-03-06T06:30:09.096Z,31.04
2019-03-06T06:31:09.071Z,31.24
2019-03-06T06:32:09.067Z,32.24
2019-03-06T06:33:09.054Z,32.36
2019-03-06T06:34:09.238Z,32.76
2019-03-06T06:35:09.234Z,32.36
2019-03-06T06:36:09.033Z,32.36
2019-03-06T06:37:09.266Z,32.97
2019-03-06T06:38:09.018Z,32.99
2019-03-06T06:39:09.246Z,33.90
2019-03-06T06:40:08.991Z,33.69
2019-03-06T06:41:08.968Z,34.38
2019-03-06T06:42:08.952Z,33.69
2019-03-06T06:43:08.949Z,34.30
2019-03-06T06:44:09.239Z,34.30
2019-03-06T06:45:08.923Z,34.00
2019-03-06T06:46:08.932Z,34.40
2019-03-06T06:47:09.236Z,34.61
2019-03-06T06:48:08.890Z,34.61
2019-03-06T06:49:08.886Z,34.01
2019-03-06T06:50:08.876Z,34.81
2019-03-06T06:51:09.249Z,35.42
2019-03-06T06:52:08.854Z,35.94
2019-03-06T06:53:09.736Z,35.34
2019-03-06T06:54:08.836Z,35.64
2019-03-06T06:55:08.819Z,35.54
2019-03-06T06:56:10.124Z,35.06
2019-03-06T06:57:08.801Z,35.36
2019-03-06T06:58:08.786Z,35.96
2019-03-06T06:59:08.777Z,36.18
2019-03-06T07:00:08.781Z,36.16
2019-03-06T07:01:08.766Z,36.16
2019-03-06T07:02:08.739Z,35.58
2019-03-06T07:03:08.743Z,36.47
2019-03-06T07:04:08.719Z,37.07
2019-03-06T07:05:08.755Z,36.49
2019-03-06T07:06:09.240Z,36.49
2019-03-06T07:07:09.255Z,37.38
2019-03-06T07:08:08.759Z,36.80
2019-03-06T07:09:08.676Z,36.80
2019-03-06T07:10:09.239Z,37.60
2019-03-06T07:11:09.230Z,37.51
2019-03-06T07:12:10.262Z,37.70
2019-03-06T07:13:08.644Z,37.81
2019-03-06T07:14:09.235Z,37.19
2019-03-06T07:15:09.239Z,36.89
2019-03-06T07:16:09.244Z,36.89
2019-03-06T07:17:09.234Z,37.08
2019-03-06T07:18:08.571Z,36.99
2019-03-06T07:19:09.250Z,37.27
2019-03-06T07:20:10.290Z,36.85
2019-03-06T07:21:09.242Z,36.55
2019-03-06T07:22:09.865Z,36.04
2019-03-06T07:23:08.527Z,36.22
2019-03-06T07:24:10.808Z,36.12
2019-03-06T07:25:09.618Z,35.50
2019-03-06T07:26:09.231Z,35.41
2019-03-06T07:27:09.253Z,35.71
2019-03-06T07:28:08.785Z,35.17
2019-03-06T07:29:08.464Z,35.39
2019-03-06T07:30:09.230Z,34.38
2019-03-06T07:31:09.325Z,34.15
2019-03-06T07:32:09.236Z,33.85
2019-03-06T07:33:09.232Z,33.64
2019-03-06T07:34:08.394Z,33.72
2019-03-06T07:35:11.924Z,32.82
2019-03-06T07:36:09.401Z,33.50
2019-03-06T07:37:12.105Z,32.71
2019-03-06T07:38:11.251Z,32.89
2019-03-06T07:39:09.344Z,32.39
2019-03-06T07:40:09.266Z,32.28
2019-03-06T07:41:10.288Z,31.79
2019-03-06T07:42:09.269Z,31.87
2019-03-06T07:43:09.237Z,31.77
2019-03-06T07:44:09.284Z,31.77
2019-03-06T07:45:10.099Z,31.26
2019-03-06T07:46:09.250Z,31.07
2019-03-06T07:47:09.244Z,31.35
2019-03-06T07:48:10.445Z,31.15
2019-03-06T07:49:08.281Z,30.83
2019-03-06T07:50:08.233Z,30.54
2019-03-06T07:51:08.769Z,30.73
2019-03-06T07:52:08.738Z,30.54
2019-03-06T07:53:08.765Z,30.63
2019-03-06T07:54:08.297Z,31.12
2019-03-06T07:55:08.187Z,29.83
2019-03-06T07:56:08.175Z,30.02
2019-03-06T07:57:08.750Z,30.73
2019-03-06T07:58:08.766Z,30.04
2019-03-06T07:59:08.776Z,30.02
2019-03-06T08:00:08.146Z,30.32
2019-03-06T08:01:17.044Z,30.41
2019-03-06T08:02:09.746Z,30.32
2019-03-06T08:03:08.766Z,30.21
2019-03-06T08:04:08.758Z,30.02
2019-03-06T08:05:08.277Z,30.32
2019-03-06T08:06:08.742Z,30.02
2019-03-06T08:07:08.742Z,30.41
2019-03-06T08:08:08.741Z,30.11
2019-03-06T08:09:08.769Z,30.32
2019-03-06T08:10:08.266Z,30.51
2019-03-06T08:11:08.744Z,30.21
2019-03-06T08:12:08.746Z,30.32
2019-03-06T08:13:10.462Z,30.41
2019-03-06T08:14:22.116Z,29.82
2019-03-06T08:15:09.815Z,30.11
2019-03-06T08:16:10.255Z,30.02
2019-03-06T08:17:24.989Z,29.82
2019-03-06T08:20:56.965Z,30.73
2019-03-06T08:24:19.762Z,30.52
2019-03-06T08:25:20.712Z,30.63
2019-03-06T08:26:19.747Z,30.52
2019-03-06T08:27:20.577Z,30.63
2019-03-06T08:28:20.724Z,30.44
2019-03-06T08:29:20.582Z,30.64
2019-03-06T08:30:22.411Z,30.34
2019-03-06T08:31:22.583Z,31.33
2019-03-06T08:32:20.586Z,30.94
2019-03-06T08:33:28.113Z,31.93
2019-03-06T08:34:25.223Z,31.53
2019-03-06T08:35:25.208Z,31.93
2019-03-06T08:36:24.563Z,31.54
2019-03-06T08:37:26.021Z,31.84
2019-03-06T08:38:21.766Z,31.84
2019-03-06T08:39:23.737Z,30.55
2019-03-06T08:40:24.135Z,31.35
2019-03-06T08:41:22.133Z,30.76
2019-03-06T08:42:23.602Z,31.25
2019-03-06T08:43:21.257Z,32.04
2019-03-06T08:44:20.089Z,31.05
2019-03-06T08:45:20.465Z,31.16
2019-03-06T08:46:20.113Z,31.96
2019-03-06T08:47:25.087Z,32.25
2019-03-06T08:48:20.335Z,32.35
2019-03-06T08:49:21.759Z,31.56
2019-03-06T08:50:34.427Z,31.66
2019-03-06T08:51:19.650Z,31.76
2019-03-06T08:52:19.586Z,31.97
2019-03-06T08:53:20.136Z,32.37
2019-03-06T08:54:19.724Z,32.07
2019-03-06T08:55:22.093Z,32.27
2019-03-06T08:56:20.088Z,32.76
2019-03-06T08:57:22.117Z,32.78
2019-03-06T08:58:20.397Z,32.78
2019-03-06T08:59:19.391Z,32.68
2019-03-06T09:00:20.112Z,32.68
2019-03-06T09:01:19.639Z,32.79
2019-03-06T09:02:20.351Z,33.19
2019-03-06T09:03:19.332Z,33.19
2019-03-06T09:04:20.107Z,33.00
2019-03-06T09:05:19.651Z,32.60
2019-03-06T09:06:20.199Z,33.59
2019-03-06T09:07:20.105Z,33.00
2019-03-06T09:08:20.138Z,32.89
2019-03-06T09:09:19.648Z,33.39
2019-03-06T09:10:20.092Z,33.78
2019-03-06T09:11:19.611Z,32.89
2019-03-06T09:12:20.116Z,34.00
2019-03-06T09:13:19.215Z,34.40
2019-03-06T09:14:22.132Z,33.61
2019-03-06T09:15:20.094Z,33.80
2019-03-06T09:16:20.108Z,34.20
2019-03-06T09:17:20.126Z,34.40
2019-03-06T09:18:20.100Z,34.10
2019-03-06T09:19:20.106Z,33.62
2019-03-06T09:20:20.184Z,34.61
2019-03-06T09:21:22.691Z,34.23
2019-03-06T09:22:20.095Z,34.33
2019-03-06T09:23:23.144Z,34.92
2019-03-06T09:24:19.632Z,34.31
2019-03-06T09:25:19.612Z,34.13
2019-03-06T09:26:19.661Z,34.64
2019-03-06T09:27:19.599Z,34.64
2019-03-06T09:28:20.657Z,35.36
2019-03-06T09:29:19.046Z,34.76
2019-03-06T09:30:19.836Z,34.94
2019-03-06T09:31:19.599Z,34.96
2019-03-06T09:32:19.659Z,35.46
2019-03-06T09:33:19.232Z,35.66
2019-03-06T09:34:21.346Z,35.55
2019-03-06T09:35:19.619Z,35.75
2019-03-06T09:36:19.627Z,33.95
2019-03-06T09:37:19.603Z,32.56
2019-03-06T09:38:19.174Z,32.96
2019-03-06T09:39:19.610Z,33.15
2019-03-06T09:40:18.936Z,33.06
2019-03-06T09:41:20.189Z,33.06
2019-03-06T09:42:19.602Z,32.66
2019-03-06T09:43:20.612Z,32.96
2019-03-06T09:44:23.594Z,32.26
2019-03-06T09:45:18.900Z,32.67
2019-03-06T09:46:19.634Z,32.87
2019-03-06T09:47:19.605Z,32.38
2019-03-06T09:48:19.658Z,32.97
2019-03-06T09:49:19.646Z,32.97
2019-03-06T09:50:19.721Z,32.38
2019-03-06T09:51:19.618Z,33.07
2019-03-06T09:52:19.621Z,32.99
2019-03-06T09:53:19.133Z,32.79
2019-03-06T09:54:19.613Z,32.29
2019-03-06T09:55:19.604Z,32.89
2019-03-06T09:56:19.620Z,32.99
2019-03-06T09:57:19.618Z,32.81
2019-03-06T09:58:19.142Z,33.00
2019-03-06T09:59:19.612Z,32.31
2019-03-06T10:00:19.609Z,31.81
2019-03-06T10:01:19.143Z,32.69
2019-03-06T10:02:19.609Z,33.22
2019-03-06T10:03:19.621Z,34.33
2019-03-06T10:04:19.691Z,34.05
2019-03-06T10:05:19.127Z,35.44
2019-03-06T10:06:18.653Z,35.75
2019-03-06T10:07:19.615Z,35.66
2019-03-06T10:08:19.125Z,35.26
2019-03-06T10:09:19.115Z,35.96
2019-03-06T10:10:19.137Z,36.16
2019-03-06T10:11:20.188Z,36.18
2019-03-06T10:12:19.115Z,35.56
2019-03-06T10:13:18.630Z,36.57
2019-03-06T10:14:18.638Z,36.57
2019-03-06T10:15:19.114Z,36.27
2019-03-06T10:16:18.538Z,37.15
2019-03-06T10:17:21.131Z,36.77
2019-03-06T10:18:19.260Z,36.27
2019-03-06T10:19:19.136Z,36.37
2019-03-06T10:20:25.030Z,36.55
2019-03-06T10:21:20.149Z,37.05
2019-03-06T10:22:19.158Z,36.65
2019-03-06T10:23:19.142Z,36.46
2019-03-06T10:24:19.844Z,36.74
2019-03-06T10:25:19.122Z,36.83
2019-03-06T10:26:19.141Z,37.04
2019-03-06T10:27:19.114Z,37.13
2019-03-06T10:28:39.471Z,36.62
2019-03-06T10:29:18.429Z,35.91
2019-03-06T10:30:18.832Z,35.19
2019-03-06T10:31:18.374Z,35.49
2019-03-06T10:32:18.368Z,35.47
2019-03-06T10:33:19.131Z,35.87
2019-03-06T10:34:19.133Z,35.77
2019-03-06T10:35:18.348Z,35.55
2019-03-06T10:36:19.136Z,34.96
2019-03-06T10:37:18.344Z,34.76
2019-03-06T10:38:18.347Z,35.14
2019-03-06T10:39:19.127Z,34.94
2019-03-06T10:40:18.661Z,34.64
2019-03-06T10:41:18.297Z,35.04
2019-03-06T10:42:18.263Z,34.53
2019-03-06T10:43:23.704Z,35.32
2019-03-06T10:44:19.243Z,34.53
2019-03-06T10:45:18.663Z,34.73
2019-03-06T10:46:19.123Z,34.61
2019-03-06T10:47:18.652Z,34.12
2019-03-06T10:48:18.748Z,34.63
2019-03-06T10:49:19.160Z,34.31
2019-03-06T10:50:26.359Z,34.41
2019-03-06T10:51:20.128Z,34.83
2019-03-06T10:52:19.131Z,34.31
2019-03-06T10:53:18.688Z,34.61
2019-03-06T10:54:19.133Z,34.52
2019-03-06T10:55:18.865Z,35.11
2019-03-06T10:56:19.670Z,35.01
2019-03-06T10:57:25.141Z,35.21
2019-03-06T10:58:22.163Z,34.61
2019-03-06T10:59:18.427Z,34.91
2019-03-06T11:00:19.659Z,34.80
2019-03-06T11:01:20.250Z,34.71
2019-03-06T11:02:41.871Z,35.69
2019-03-06T11:03:18.030Z,35.09
2019-03-06T11:04:24.001Z,34.99
2019-03-06T11:05:19.895Z,34.50
2019-03-06T11:06:19.663Z,34.89
2019-03-06T11:07:20.869Z,34.30
2019-03-06T11:08:25.043Z,34.38
2019-03-06T11:09:19.023Z,34.08
2019-03-06T11:10:24.507Z,34.28
2019-03-06T11:11:22.241Z,34.18
2019-03-06T11:12:18.154Z,34.18
2019-03-06T11:13:18.637Z,34.38
2019-03-06T11:14:19.095Z,34.50
2019-03-06T11:15:19.095Z,34.59
2019-03-06T11:16:18.631Z,34.50
2019-03-06T11:17:22.340Z,34.80
2019-03-06T11:18:18.823Z,35.09
2019-03-06T11:19:21.877Z,34.99
2019-03-06T11:20:18.687Z,34.69
2019-03-06T11:21:19.362Z,35.09
2019-03-06T11:22:18.908Z,35.39
2019-03-06T11:23:18.634Z,34.69
2019-03-06T11:24:18.644Z,34.59
2019-03-06T11:25:18.820Z,34.59
2019-03-06T11:26:18.647Z,34.99
2019-03-06T11:27:18.735Z,34.80
2019-03-06T11:28:18.660Z,34.80
2019-03-06T11:29:19.487Z,35.31
2019-03-06T11:30:21.213Z,35.21
2019-03-06T11:31:19.288Z,35.03
2019-03-06T11:32:18.637Z,34.92
2019-03-06T11:33:18.744Z,35.82
2019-03-06T11:34:21.724Z,35.13
2019-03-06T11:35:17.761Z,35.62
2019-03-06T11:36:20.664Z,35.62
2019-03-06T11:37:18.646Z,36.11
2019-03-06T11:38:18.643Z,35.92
2019-03-06T11:39:18.669Z,35.92
2019-03-06T11:40:17.700Z,36.13
2019-03-06T11:41:18.181Z,36.11
2019-03-06T11:42:18.152Z,35.34
2019-03-06T11:43:18.153Z,36.13
2019-03-06T11:44:18.173Z,36.04
2019-03-06T11:45:17.661Z,36.73
2019-03-06T11:46:18.152Z,36.13
2019-03-06T11:47:18.150Z,36.43
2019-03-06T11:48:18.180Z,36.93
2019-03-06T11:49:19.625Z,36.43
2019-03-06T11:50:17.546Z,36.13
2019-03-06T11:51:20.162Z,36.04
2019-03-06T11:52:19.115Z,36.73
2019-03-06T11:53:18.157Z,37.03
2019-03-06T11:54:19.209Z,36.55
2019-03-06T11:55:19.165Z,36.25
2019-03-06T11:56:25.126Z,37.24
2019-03-06T11:57:23.121Z,36.65
2019-03-06T11:58:51.162Z,36.85
2019-03-06T11:59:19.023Z,37.04
2019-03-06T12:00:23.136Z,36.85
2019-03-06T12:01:20.022Z,36.66
2019-03-06T12:02:19.141Z,36.47
2019-03-06T12:03:23.928Z,37.66
2019-03-06T12:04:24.641Z,37.66
2019-03-06T12:05:22.269Z,37.86
2019-03-06T12:06:23.712Z,38.06
2019-03-06T12:07:24.509Z,38.28
2019-03-06T12:08:21.185Z,37.58
2019-03-06T12:09:20.383Z,37.68
2019-03-06T12:10:20.448Z,37.88
2019-03-06T12:11:20.763Z,37.88
2019-03-06T12:12:19.229Z,37.98
2019-03-06T12:13:31.789Z,37.68
2019-03-06T12:14:20.732Z,37.98
2019-03-06T12:15:18.176Z,38.28
2019-03-06T12:16:18.794Z,38.47
2019-03-06T12:17:20.317Z,38.07
2019-03-06T12:18:18.174Z,37.60
2019-03-06T12:19:20.258Z,37.98
2019-03-06T12:20:21.164Z,37.48
2019-03-06T12:21:20.402Z,37.77
2019-03-06T12:22:21.656Z,38.18
2019-03-06T12:24:43.351Z,37.90
2019-03-06T12:25:41.640Z,37.88
2019-03-06T12:26:38.719Z,37.68
2019-03-06T12:27:39.854Z,37.99
2019-03-06T12:28:45.151Z,38.39
2019-03-06T12:29:55.237Z,37.79
2019-03-06T12:30:45.428Z,37.70
2019-03-06T12:31:41.448Z,38.29
2019-03-06T12:32:42.639Z,38.20
2019-03-06T12:33:39.153Z,38.20
2019-03-06T12:34:39.144Z,37.99
2019-03-06T12:35:41.850Z,38.20
2019-03-06T12:36:39.702Z,38.09
2019-03-06T12:37:46.838Z,37.99
2019-03-06T12:38:40.918Z,38.09
2019-03-06T12:39:37.170Z,38.11
2019-03-06T12:40:40.656Z,38.31
2019-03-06T12:41:44.492Z,38.81
2019-03-06T12:42:39.669Z,38.71
2019-03-06T12:43:37.843Z,38.91
2019-03-06T12:44:41.006Z,38.11
2019-03-06T12:45:39.140Z,38.91
2019-03-06T12:46:41.521Z,38.01
2019-03-06T12:47:40.660Z,39.11
2019-03-06T12:48:40.976Z,38.82
2019-03-06T12:49:45.189Z,38.73
2019-03-06T12:50:40.697Z,38.82
2019-03-06T12:51:54.439Z,38.82
2019-03-06T12:54:04.428Z,39.32
2019-03-06T12:55:06.000Z,38.35
2019-03-06T12:56:23.005Z,39.44
2019-03-06T12:57:06.633Z,38.54
2019-03-06T12:58:05.868Z,39.84
2019-03-06T12:59:12.446Z,39.64
2019-03-06T13:00:02.921Z,40.04